createdAt,value
2022-10-23T00:00:41.800Z,100825.03
2022-10-23T00:03:45.508Z,100820.06
2022-10-23T00:06:49.164Z,100831.88
2022-10-23T00:09:52.524Z,100831.19
2022-10-23T00:12:55.732Z,100839.84
2022-10-23T00:15:58.604Z,100841.78
2022-10-23T00:19:04.207Z,100846.97
2022-10-23T00:22:08.862Z,100840.75
2022-10-23T00:25:11.680Z,100837.13
2022-10-23T00:28:14.796Z,100840.75
2022-10-23T00:31:18.227Z,100843.22
2022-10-23T00:34:21.218Z,100847.84
2022-10-23T00:37:23.831Z,100847.97
2022-10-23T00:40:26.749Z,100853.94
2022-10-23T00:43:31.036Z,100855.44
2022-10-23T00:46:34.307Z,100854.50
2022-10-23T00:49:39.501Z,100867.31
2022-10-23T00:52:49.380Z,100870.84
2022-10-23T00:55:55.022Z,100868.78
2022-10-23T00:58:58.300Z,100865.50
2022-10-23T01:02:02.306Z,100865.75
2022-10-23T01:05:05.606Z,100856.41
2022-10-23T01:08:32.221Z,100859.59
2022-10-23T01:12:07.844Z,100876.59
2022-10-23T01:15:28.824Z,100869.78
2022-10-23T01:18:44.964Z,100879.56
2022-10-23T01:22:12.109Z,100878.22
2022-10-23T01:25:34.714Z,100875.00
2022-10-23T01:28:59.765Z,100875.75
2022-10-23T01:32:14.217Z,100871.00
2022-10-23T01:35:43.332Z,100870.94
2022-10-23T01:38:53.558Z,100874.88
2022-10-23T01:42:07.111Z,100868.53
2022-10-23T01:45:16.384Z,100861.94
2022-10-23T01:48:25.177Z,100866.56
2022-10-23T01:51:30.566Z,100861.22
2022-10-23T01:54:41.595Z,100857.63
2022-10-23T01:57:46.138Z,100852.00
2022-10-23T02:00:52.098Z,100848.13
2022-10-23T02:07:00.060Z,100846.09
2022-10-23T02:10:09.476Z,100851.09
2022-10-23T02:13:36.529Z,100857.50
2022-10-23T02:16:50.564Z,100857.22
2022-10-23T02:20:05.474Z,100842.84
2022-10-23T02:23:26.118Z,100850.06
2022-10-23T02:26:39.489Z,100849.28
2022-10-23T02:29:53.899Z,100866.41
2022-10-23T02:32:57.705Z,100868.34
2022-10-23T02:36:00.709Z,100877.37
2022-10-23T02:39:05.861Z,100876.56
2022-10-23T02:42:22.442Z,100875.47
2022-10-23T02:45:35.200Z,100864.88
2022-10-23T02:48:52.603Z,100873.12
2022-10-23T02:52:11.093Z,100884.44
2022-10-23T02:55:22.555Z,100884.50
2022-10-23T02:58:59.521Z,100879.94
2022-10-23T03:02:08.645Z,100885.91
2022-10-23T03:05:18.169Z,100891.63
2022-10-23T03:08:21.071Z,100885.38
2022-10-23T03:11:24.013Z,100886.19
2022-10-23T03:14:26.917Z,100899.66
2022-10-23T03:17:29.607Z,100894.72
2022-10-23T03:20:33.231Z,100899.06
2022-10-23T03:23:37.094Z,100891.97
2022-10-23T03:26:40.270Z,100892.97
2022-10-23T03:29:43.699Z,100882.62
2022-10-23T03:32:46.610Z,100877.50
2022-10-23T03:35:50.077Z,100884.69
2022-10-23T03:38:53.029Z,100892.41
2022-10-23T03:41:56.245Z,100889.97
2022-10-23T03:44:59.154Z,100884.91
2022-10-23T03:48:01.829Z,100890.09
2022-10-23T03:51:07.226Z,100888.16
2022-10-23T03:54:10.191Z,100888.03
2022-10-23T03:57:13.288Z,100889.91
2022-10-23T04:00:17.237Z,100870.28
2022-10-23T04:03:24.461Z,100871.25
2022-10-23T04:06:27.411Z,100880.56
2022-10-23T04:09:30.676Z,100865.34
2022-10-23T04:12:34.892Z,100870.13
2022-10-23T04:15:37.754Z,100876.53
2022-10-23T04:18:41.913Z,100880.94
2022-10-23T04:21:45.408Z,100885.69
2022-10-23T04:24:48.261Z,100887.78
2022-10-23T04:27:53.030Z,100893.44
2022-10-23T04:30:55.746Z,100896.03
2022-10-23T04:33:58.805Z,100904.25
2022-10-23T04:37:01.695Z,100910.09
2022-10-23T04:40:05.516Z,100907.38
2022-10-23T04:43:10.779Z,100900.06
2022-10-23T04:46:13.722Z,100900.19
2022-10-23T04:49:16.400Z,100894.34
2022-10-23T04:52:20.709Z,100897.22
2022-10-23T04:55:25.552Z,100907.38
2022-10-23T04:58:29.959Z,100901.91
2022-10-23T05:01:33.004Z,100897.47
2022-10-23T05:04:36.745Z,100888.28
2022-10-23T05:07:43.620Z,100890.03
2022-10-23T05:10:48.763Z,100885.31
2022-10-23T05:13:51.488Z,100889.44
2022-10-23T05:16:57.534Z,100885.16
2022-10-23T05:20:05.486Z,100882.41
2022-10-23T05:23:11.829Z,100879.31
2022-10-23T05:26:14.756Z,100879.25
2022-10-23T05:29:19.221Z,100882.75
2022-10-23T05:32:22.643Z,100883.25
2022-10-23T05:35:27.720Z,100893.41
2022-10-23T05:38:33.860Z,100891.09
2022-10-23T05:41:38.405Z,100885.38
2022-10-23T05:44:41.375Z,100887.19
2022-10-23T05:47:45.975Z,100898.72
2022-10-23T05:50:51.603Z,100898.91
2022-10-23T05:53:55.486Z,100896.34
2022-10-23T05:56:58.612Z,100905.19
2022-10-23T06:00:04.446Z,100913.59
2022-10-23T06:03:15.837Z,100904.50
2022-10-23T06:06:19.309Z,100916.91
2022-10-23T06:09:22.078Z,100926.62
2022-10-23T06:12:25.616Z,100932.56
2022-10-23T06:15:28.533Z,100933.59
2022-10-23T06:18:32.945Z,100941.87
2022-10-23T06:21:40.618Z,100949.59
2022-10-23T06:24:44.252Z,100964.22
2022-10-23T06:27:47.120Z,100951.56
2022-10-23T06:30:50.566Z,100951.56
2022-10-23T06:33:57.068Z,100948.87
2022-10-23T06:37:02.728Z,100958.19
2022-10-23T06:40:08.055Z,100960.78
2022-10-23T06:43:11.100Z,100970.31
2022-10-23T06:46:15.316Z,100978.50
2022-10-23T06:49:21.307Z,100977.19
2022-10-23T06:52:42.107Z,100972.28
2022-10-23T06:55:50.013Z,100963.00
2022-10-23T06:58:55.901Z,100954.59
2022-10-23T07:02:00.264Z,100961.97
2022-10-23T07:05:03.473Z,100970.53
2022-10-23T07:08:11.203Z,100970.03
2022-10-23T07:11:22.378Z,100963.78
2022-10-23T07:14:32.830Z,100967.44
2022-10-23T07:17:36.757Z,100955.22
2022-10-23T07:20:43.823Z,100953.56
2022-10-23T07:23:48.364Z,100946.00
2022-10-23T07:26:59.460Z,100949.03
2022-10-23T07:30:03.779Z,100946.19
2022-10-23T07:33:09.050Z,100944.16
2022-10-23T07:36:11.944Z,100947.75
2022-10-23T07:39:14.967Z,100941.47
2022-10-23T07:42:18.192Z,100942.63
2022-10-23T07:45:21.692Z,100940.19
2022-10-23T07:48:24.942Z,100927.09
2022-10-23T07:51:29.381Z,100922.38
2022-10-23T07:54:33.820Z,100928.34
2022-10-23T07:57:39.601Z,100917.75
2022-10-23T08:00:42.622Z,100911.06
2022-10-23T08:03:45.905Z,100911.44
2022-10-23T08:06:49.507Z,100911.87
2022-10-23T08:09:53.237Z,100908.03
2022-10-23T08:12:55.935Z,100908.09
2022-10-23T08:16:00.663Z,100910.66
2022-10-23T08:19:07.220Z,100906.69
2022-10-23T08:22:10.506Z,100897.03
2022-10-23T08:25:13.719Z,100898.50
2022-10-23T08:28:17.310Z,100890.03
2022-10-23T08:31:21.466Z,100883.97
2022-10-23T08:34:25.502Z,100875.41
2022-10-23T08:37:32.785Z,100878.75
2022-10-23T08:40:36.409Z,100866.84
2022-10-23T08:43:50.973Z,100872.84
2022-10-23T08:47:22.757Z,100867.97
2022-10-23T08:50:56.544Z,100872.38
2022-10-23T08:54:12.841Z,100870.75
2022-10-23T08:57:17.510Z,100883.91
2022-10-23T09:00:20.704Z,100883.38
2022-10-23T09:03:23.579Z,100885.88
2022-10-23T09:06:39.617Z,100879.09
2022-10-23T09:10:06.311Z,100867.84
2022-10-23T09:13:49.171Z,100879.06
2022-10-23T09:16:54.533Z,100877.66
2022-10-23T09:20:23.917Z,100882.84
2022-10-23T09:23:26.496Z,100873.91
2022-10-23T09:26:29.601Z,100872.81
2022-10-23T09:29:36.182Z,100863.06
2022-10-23T09:32:39.340Z,100864.75
2022-10-23T09:35:55.125Z,100855.06
2022-10-23T09:39:00.474Z,100854.66
2022-10-23T09:42:24.932Z,100846.06
2022-10-23T09:45:34.145Z,100838.66
2022-10-23T09:48:37.389Z,100838.50
2022-10-23T09:51:42.240Z,100838.09
2022-10-23T09:55:09.457Z,100841.09
2022-10-23T09:58:30.019Z,100843.63
2022-10-23T10:01:45.609Z,100847.72
2022-10-23T10:04:53.690Z,100847.97
2022-10-23T10:08:03.848Z,100839.88
2022-10-23T10:11:28.455Z,100840.91
2022-10-23T10:14:55.897Z,100829.13
2022-10-23T10:18:21.867Z,100825.34
2022-10-23T10:22:08.948Z,100809.38
2022-10-23T10:25:28.669Z,100811.69
2022-10-23T10:28:50.118Z,100799.94
2022-10-23T10:31:56.058Z,100798.00
2022-10-23T10:35:04.361Z,100789.84
2022-10-23T10:38:43.006Z,100789.19
2022-10-23T10:41:55.790Z,100776.78
2022-10-23T10:45:27.465Z,100774.88
2022-10-23T10:49:06.116Z,100765.09
2022-10-23T10:52:48.323Z,100759.28
2022-10-23T10:55:55.666Z,100759.47
2022-10-23T10:59:03.953Z,100752.00
2022-10-23T11:02:41.741Z,100750.97
2022-10-23T11:05:51.864Z,100749.59
2022-10-23T11:09:15.630Z,100746.41
2022-10-23T11:12:23.317Z,100740.81
2022-10-23T11:15:29.537Z,100740.97
2022-10-23T11:18:34.055Z,100737.59
2022-10-23T11:21:58.307Z,100734.25
2022-10-23T11:25:21.858Z,100725.53
2022-10-23T11:28:43.082Z,100733.75
2022-10-23T11:32:06.519Z,100731.94
2022-10-23T11:35:37.126Z,100726.56
2022-10-23T11:38:42.322Z,100722.88
2022-10-23T11:42:15.289Z,100724.94
2022-10-23T11:45:41.048Z,100715.28
2022-10-23T11:48:44.991Z,100717.69
2022-10-23T11:51:47.969Z,100706.59
2022-10-23T11:55:05.612Z,100695.88
2022-10-23T11:58:16.382Z,100694.91
2022-10-23T12:01:43.060Z,100687.50
2022-10-23T12:04:49.530Z,100691.22
2022-10-23T12:07:58.179Z,100695.75
2022-10-23T12:11:01.143Z,100679.28
2022-10-23T12:14:03.923Z,100681.66
2022-10-23T12:17:38.270Z,100674.44
2022-10-23T12:21:01.975Z,100679.88
2022-10-23T12:24:39.912Z,100669.84
2022-10-23T12:27:53.345Z,100672.62
2022-10-23T12:31:33.099Z,100655.75
2022-10-23T12:34:47.887Z,100667.19
2022-10-23T12:37:56.927Z,100667.25
2022-10-23T12:41:14.232Z,100681.22
2022-10-23T12:44:19.511Z,100669.84
2022-10-23T12:47:22.492Z,100671.41
2022-10-23T12:50:28.804Z,100664.41
2022-10-23T12:53:34.639Z,100668.50
2022-10-23T12:56:39.206Z,100668.09
2022-10-23T12:59:42.902Z,100660.19
2022-10-23T13:02:46.076Z,100658.56
2022-10-23T13:05:51.944Z,100647.44
2022-10-23T13:08:56.404Z,100666.72
2022-10-23T13:12:02.470Z,100655.94
2022-10-23T13:15:08.521Z,100656.78
2022-10-23T13:18:14.684Z,100655.62
2022-10-23T13:21:23.347Z,100657.97
2022-10-23T13:24:29.783Z,100646.75
2022-10-23T13:27:34.749Z,100648.50
2022-10-23T13:30:43.886Z,100658.63
2022-10-23T13:34:11.588Z,100642.38
2022-10-23T13:37:24.711Z,100642.41
2022-10-23T13:40:28.283Z,100628.81
2022-10-23T13:43:32.773Z,100626.44
2022-10-23T13:46:35.960Z,100633.75
2022-10-23T13:49:38.918Z,100627.72
2022-10-23T13:52:42.322Z,100621.31
2022-10-23T13:55:50.112Z,100622.91
2022-10-23T13:58:54.298Z,100621.31
2022-10-23T14:01:57.371Z,100631.34
2022-10-23T14:05:00.372Z,100628.94
2022-10-23T14:08:02.999Z,100620.94
2022-10-23T14:11:06.152Z,100614.97
2022-10-23T14:14:09.576Z,100617.38
2022-10-23T14:17:12.772Z,100609.41
2022-10-23T14:20:17.393Z,100603.81
2022-10-23T14:23:22.027Z,100595.44
2022-10-23T14:26:27.989Z,100597.03
2022-10-23T14:29:31.613Z,100597.03
2022-10-23T14:32:34.380Z,100602.63
2022-10-23T14:35:43.787Z,100594.62
2022-10-23T14:38:51.417Z,100595.47
2022-10-23T14:41:56.587Z,100596.25
2022-10-23T14:44:59.249Z,100583.47
2022-10-23T14:48:03.754Z,100582.28
2022-10-23T14:51:25.335Z,100577.47
2022-10-23T14:54:29.894Z,100572.66
2022-10-23T14:57:32.886Z,100577.91
2022-10-23T15:00:35.846Z,100571.91
2022-10-23T15:03:38.435Z,100558.31
2022-10-23T15:06:42.150Z,100584.72
2022-10-23T15:09:44.880Z,100575.13
2022-10-23T15:12:48.797Z,100586.31
2022-10-23T15:15:52.728Z,100588.72
2022-10-23T15:18:57.936Z,100593.91
2022-10-23T15:22:00.880Z,100592.31
2022-10-23T15:25:04.085Z,100585.91
2022-10-23T15:28:06.738Z,100588.72
2022-10-23T15:31:45.038Z,100604.31
2022-10-23T15:34:50.223Z,100593.53
2022-10-23T15:37:53.553Z,100581.94
2022-10-23T15:41:13.539Z,100591.12
2022-10-23T15:44:18.540Z,100593.56
2022-10-23T15:47:21.685Z,100595.94
2022-10-23T15:50:24.877Z,100613.94
2022-10-23T15:53:27.489Z,100615.12
2022-10-23T15:56:30.469Z,100610.72
2022-10-23T15:59:34.679Z,100602.72
2022-10-23T16:02:37.900Z,100601.53
2022-10-23T16:05:40.979Z,100582.34
2022-10-23T16:08:46.813Z,100594.75
2022-10-23T16:11:49.750Z,100590.34
2022-10-23T16:14:52.733Z,100587.94
2022-10-23T16:17:55.825Z,100578.34
2022-10-23T16:20:58.468Z,100591.53
2022-10-23T16:24:13.162Z,100593.13
2022-10-23T16:27:15.978Z,100599.94
2022-10-23T16:30:19.367Z,100613.13
2022-10-23T16:33:22.077Z,100613.91
2022-10-23T16:36:25.539Z,100611.53
2022-10-23T16:39:31.807Z,100612.31
2022-10-23T16:42:48.919Z,100617.09
2022-10-23T16:46:06.765Z,100610.31
2022-10-23T16:49:11.291Z,100615.50
2022-10-23T16:52:15.516Z,100607.53
2022-10-23T16:55:18.630Z,100604.31
2022-10-23T16:58:21.470Z,100608.72
2022-10-23T17:01:30.326Z,100612.31
2022-10-23T17:04:36.872Z,100623.91
2022-10-23T17:07:42.393Z,100617.91
2022-10-23T17:10:45.664Z,100616.31
2022-10-23T17:13:55.704Z,100617.13
2022-10-23T17:17:02.363Z,100613.50
2022-10-23T17:20:06.222Z,100613.47
2022-10-23T17:23:10.798Z,100607.50
2022-10-23T17:26:17.189Z,100615.53
2022-10-23T17:29:22.890Z,100613.50
2022-10-23T17:32:27.392Z,100610.31
2022-10-23T17:35:30.556Z,100609.09
2022-10-23T17:38:36.481Z,100614.28
2022-10-23T17:41:40.498Z,100613.91
2022-10-23T17:44:45.131Z,100624.28
2022-10-23T17:47:48.705Z,100623.47
2022-10-23T17:51:02.849Z,100621.06
2022-10-23T17:54:12.279Z,100606.25
2022-10-23T17:57:50.184Z,100591.19
2022-10-23T18:00:53.824Z,100591.19
2022-10-23T18:04:00.802Z,100600.28
2022-10-23T18:07:04.057Z,100598.25
2022-10-23T18:10:07.985Z,100593.09
2022-10-23T18:13:11.024Z,100603.47
2022-10-23T18:16:15.306Z,100596.31
2022-10-23T18:19:19.409Z,100596.72
2022-10-23T18:22:22.860Z,100597.94
2022-10-23T18:25:25.903Z,100603.09
2022-10-23T18:28:29.972Z,100605.12
2022-10-23T18:31:34.330Z,100601.94
2022-10-23T18:34:41.024Z,100601.94
2022-10-23T18:37:44.328Z,100599.53
2022-10-23T18:40:54.915Z,100610.31
2022-10-23T18:43:57.919Z,100610.72
2022-10-23T18:47:01.450Z,100597.94
2022-10-23T18:50:05.993Z,100595.09
2022-10-23T18:53:09.010Z,100589.91
2022-10-23T18:56:13.175Z,100596.28
2022-10-23T18:59:20.103Z,100590.69
2022-10-23T19:02:23.644Z,100590.66
2022-10-23T19:05:27.767Z,100589.87
2022-10-23T19:08:33.574Z,100580.69
2022-10-23T19:11:38.535Z,100581.53
2022-10-23T19:14:41.653Z,100586.72
2022-10-23T19:17:46.277Z,100575.53
2022-10-23T19:20:49.884Z,100583.16
2022-10-23T19:23:53.575Z,100577.16
2022-10-23T19:26:57.636Z,100574.38
2022-10-23T19:30:04.025Z,100579.16
2022-10-23T19:33:07.228Z,100579.16
2022-10-23T19:36:14.461Z,100584.75
2022-10-23T19:39:19.225Z,100583.97
2022-10-23T19:42:23.085Z,100593.16
2022-10-23T19:45:26.208Z,100592.38
2022-10-23T19:48:30.770Z,100590.75
2022-10-23T19:51:33.380Z,100589.97
2022-10-23T19:54:38.379Z,100595.56
2022-10-23T19:57:42.354Z,100591.56
2022-10-23T20:00:46.975Z,100589.53
2022-10-23T20:03:50.413Z,100585.94
2022-10-23T20:06:53.640Z,100584.34
2022-10-23T20:09:56.916Z,100572.37
2022-10-23T20:13:18.241Z,100564.78
2022-10-23T20:16:42.574Z,100557.56
2022-10-23T20:19:45.593Z,100554.78
2022-10-23T20:22:53.234Z,100550.78
2022-10-23T20:26:08.649Z,100543.19
2022-10-23T20:29:12.085Z,100536.00
2022-10-23T20:32:15.942Z,100538.78
2022-10-23T20:35:19.108Z,100535.59
2022-10-23T20:38:23.260Z,100549.59
2022-10-23T20:41:28.830Z,100548.81
2022-10-23T20:44:31.798Z,100547.62
2022-10-23T20:47:35.120Z,100559.56
2022-10-23T20:50:38.225Z,100558.78
2022-10-23T20:53:42.322Z,100548.41
2022-10-23T20:56:45.455Z,100544.81
2022-10-23T20:59:48.494Z,100557.97
2022-10-23T21:02:52.668Z,100566.41
2022-10-23T21:05:55.834Z,100569.19
2022-10-23T21:09:00.829Z,100565.56
2022-10-23T21:12:04.336Z,100573.94
2022-10-23T21:15:07.869Z,100568.38
2022-10-23T21:18:26.502Z,100559.56
2022-10-23T21:21:38.787Z,100558.81
2022-10-23T21:24:41.780Z,100553.22
2022-10-23T21:27:45.466Z,100557.19
2022-10-23T21:30:50.208Z,100550.81
2022-10-23T21:33:54.075Z,100540.03
2022-10-23T21:37:13.888Z,100542.00
2022-10-23T21:40:17.349Z,100548.78
2022-10-23T21:43:20.234Z,100559.97
2022-10-23T21:46:24.676Z,100564.41
2022-10-23T21:49:27.687Z,100555.59
2022-10-23T21:52:30.295Z,100552.00
2022-10-23T21:55:33.244Z,100557.97
2022-10-23T21:58:37.200Z,100568.38
2022-10-23T22:01:43.305Z,100565.16
2022-10-23T22:04:46.341Z,100557.97
2022-10-23T22:07:48.947Z,100558.00
2022-10-23T22:10:51.867Z,100549.22
2022-10-23T22:13:55.531Z,100538.84
2022-10-23T22:16:58.688Z,100532.03
2022-10-23T22:20:02.292Z,100539.59
2022-10-23T22:23:05.341Z,100530.44
2022-10-23T22:26:18.559Z,100520.84
2022-10-23T22:29:24.946Z,100535.63
2022-10-23T22:32:27.491Z,100536.00
2022-10-23T22:35:30.902Z,100535.22
2022-10-23T22:38:33.513Z,100535.59
2022-10-23T22:41:36.409Z,100523.22
2022-10-23T22:44:38.947Z,100524.41
2022-10-23T22:47:41.895Z,100537.22
2022-10-23T22:50:47.014Z,100531.19
2022-10-23T22:53:49.942Z,100531.97
2022-10-23T22:56:52.601Z,100525.16
2022-10-23T22:59:55.496Z,100522.84
2022-10-23T23:02:59.886Z,100521.63
2022-10-23T23:06:06.695Z,100523.62
2022-10-23T23:09:09.569Z,100524.44
2022-10-23T23:12:14.368Z,100522.03
2022-10-23T23:15:17.145Z,100529.22
2022-10-23T23:18:19.961Z,100527.22
2022-10-23T23:21:22.770Z,100526.03
2022-10-23T23:24:26.305Z,100515.66
2022-10-23T23:27:28.998Z,100510.88
2022-10-23T23:30:31.890Z,100516.44
2022-10-23T23:33:35.901Z,100513.22
2022-10-23T23:36:38.893Z,100510.44
2022-10-23T23:39:41.447Z,100519.59
2022-10-23T23:42:45.685Z,100516.00
2022-10-23T23:45:48.553Z,100513.59
2022-10-23T23:48:51.541Z,100508.41
2022-10-23T23:51:54.089Z,100517.56
2022-10-23T23:54:57.163Z,100507.59
2022-10-23T23:57:59.842Z,100506.38
